• Join FlightAware (Why Join?)
  • Login
  • US Flag 
Gobble Gobble! 
01:34PM EST


 

Airport Tracker/Info


-or-


 

Live Flight TrackerFlight Track Log ✈ JIA2371 ✈ 10-May-2013 ✈ KPHL - KBNA

Flight Track Log - Related Links

Times and Time Zones

All times are in EDT time to prevent confusion due to time zone crossing. See the JIA2371 flight status page for this flight to view local times or setup timezone preferences in your user account.

Time Position Orientation Groundspeed Altitude Reporting Facility
EDT Latitude Longitude Course Direction KTS MPH feet Rate Location/Type
04:27PM 39.8667 -75.2833 270° West 164 189 800  Level Philadelphia TRACON
04:28PM 39.8500 -75.3333 247° West 191 220 2,500 1,980 Climbing Philadelphia TRACON
04:29PM 39.8333 -75.4167 255° West 231 266 4,400 2,220 Climbing Philadelphia TRACON
04:30PM 39.8431 -75.5619 275° West 273 314 8,400 2,580 Climbing New York Center
04:31PM 39.9082 -75.7173 258° West  Level FlightAware Approximate
04:31PM 39.8536 -75.6600 278° West 268 308 11,200  Level New York Center
04:32PM 39.9001 -75.8425 270° West  Level FlightAware Approximate
04:32PM 39.8642 -75.7581 278° West 275 316 12,200  Level New York Center
04:33PM 39.8758 -75.8753 277° West 316 364 13,400 1,200 Climbing New York Center
04:34PM 39.8892 -75.9981 278° West 331 381 14,700 1,380 Climbing New York Center
04:35PM 39.9022 -76.1289 277° West 359 413 16,200 1,380 Climbing New York Center
04:36PM 39.9111 -76.2514 275° West 359 413 17,400 1,200 Climbing New York Center
04:37PM 39.9175 -76.3844 274° West 359 413 18,700 1,080 Climbing New York Center
04:38PM 39.9200 -76.5011 272° West 364 419 19,700 1,080 Climbing New York Center
04:39PM 39.9242 -76.6314 272° West 369 425 20,900 1,080 Climbing New York Center
04:40PM 39.9075 -76.7572 260° West 369 425 21,900 1,020 Climbing New York Center
04:42PM 39.7889 -76.9983 237° Southwest 362 417 24,100 960 Climbing Washington Center
04:43PM 39.7375 -77.1081 239° Southwest 367 422 25,000 840 Climbing Washington Center
04:44PM 39.6839 -77.2200 238° Southwest 367 422 25,800 780 Climbing Washington Center
04:45PM 39.6344 -77.3294 240° Southwest 360 414 26,600 720 Climbing Washington Center
04:46PM 39.5808 -77.4386 238° Southwest 360 414 27,300 660 Climbing Washington Center
04:47PM 39.5292 -77.5475 238° Southwest 360 414 28,000 600 Climbing Washington Center
04:48PM 39.4792 -77.6592 240° Southwest 360 414 28,600 540 Climbing Washington Center
04:49PM 39.4253 -77.7706 238° Southwest 360 414 29,100 480 Climbing Washington Center
04:50PM 39.3731 -77.8817 239° Southwest 360 414 29,600 480 Climbing Washington Center
04:51PM 39.3250 -78.0008 242° Southwest 360 414 30,100 480 Climbing Washington Center
04:52PM 39.2808 -78.1175 244° Southwest 365 420 30,600 480 Climbing Washington Center
04:53PM 39.2325 -78.2308 241° Southwest 365 420 31,100 480 Climbing Washington Center
04:54PM 39.1906 -78.3392 243° Southwest 365 420 31,600 480 Climbing Washington Center
04:55PM 39.1442 -78.4553 243° Southwest 365 420 32,100 480 Climbing Washington Center
04:56PM 39.0997 -78.5686 243° Southwest 365 420 32,600 480 Climbing Washington Center
04:57PM 39.0531 -78.6817 242° Southwest 360 414 33,100 540 Climbing Washington Center
04:58PM 39.0083 -78.7947 243° Southwest 360 414 33,700 420 Climbing Washington Center
05:00PM 38.9636 -78.9047 242° Southwest 360 414 34,000 120 Climbing Washington Center
05:00PM 38.9167 -79.0175 242° Southwest 360 414 34,000  Level Washington Center
05:01PM 38.8697 -79.1297 242° Southwest 360 414 34,000  Level Washington Center
05:02PM 38.8306 -79.2533 248° West 365 420 34,000  Level Washington Center
05:03PM 38.8097 -79.3853 259° West 371 427 34,000  Level Washington Center
05:04PM 38.7867 -79.5175 257° West 377 434 34,000  Level Washington Center
05:05PM 38.7589 -79.6650 256° West 389 448 34,000  Level Washington Center
05:06PM 38.7383 -79.7811 257° West 389 448 34,000  Level Washington Center
05:07PM 38.7150 -79.9100 257° West 389 448 34,000  Level Washington Center
05:08PM 38.6917 -80.0364 257° West 379 436 34,000  Level Washington Center
05:09PM 38.6628 -80.1731 255° West 367 422 34,000  Level Indianapolis Center
05:11PM 38.6375 -80.3003 256° West 367 422 34,000  Level Indianapolis Center
05:12PM 38.6147 -80.4261 257° West 365 420 34,000  Level Indianapolis Center
05:13PM 38.5897 -80.5517 256° West 364 419 34,000  Level Indianapolis Center
05:14PM 38.5661 -80.6789 257° West 368 423 34,000  Level Indianapolis Center
05:15PM 38.5411 -80.8053 256° West 367 422 34,000  Level Indianapolis Center
05:16PM 38.5169 -80.9322 256° West 368 423 34,000  Level Indianapolis Center
05:17PM 38.4872 -81.0828 256° West 363 418 34,000  Level Indianapolis Center
05:18PM 38.4619 -81.2097 256° West 366 421 34,000  Level Indianapolis Center
05:19PM 38.4372 -81.3361 256° West 365 420 34,000  Level Indianapolis Center
05:20PM 38.4117 -81.4625 256° West 365 420 34,000  Level Indianapolis Center
05:21PM 38.3867 -81.5892 256° West 365 420 34,000  Level Indianapolis Center
05:22PM 38.3614 -81.7147 256° West 364 419 34,000  Level Indianapolis Center
05:23PM 38.3308 -81.8381 253° West 362 417 34,000  Level Indianapolis Center
05:24PM 38.2969 -81.9586 250° West 363 418 34,000  Level Indianapolis Center
05:25PM 38.2625 -82.0814 250° West 366 421 34,000  Level Indianapolis Center
05:26PM 38.2283 -82.2025 250° West 365 420 34,000  Level Indianapolis Center
05:27PM 38.1875 -82.3481 250° West 364 419 34,000  Level Indianapolis Center
05:28PM 38.1525 -82.4708 250° West 368 423 34,000  Level Indianapolis Center
05:29PM 38.1172 -82.5919 250° West 365 420 34,000  Level Indianapolis Center
05:30PM 38.0828 -82.7136 250° West 367 422 34,000  Level Indianapolis Center
05:31PM 38.0472 -82.8356 250° West 368 423 34,000  Level Indianapolis Center
05:32PM 37.9950 -82.9467 239° Southwest 370 426 34,000  Level Indianapolis Center
05:33PM 37.9331 -83.0758 239° Southwest 368 423 34,000  Level Indianapolis Center
05:34PM 37.8794 -83.1864 238° Southwest 368 423 34,000  Level Indianapolis Center
05:35PM 37.8256 -83.2969 238° Southwest 369 425 34,000  Level Indianapolis Center
05:36PM 37.7706 -83.4064 238° Southwest 369 425 34,000  Level Indianapolis Center
05:37PM 37.7161 -83.5144 238° Southwest 366 421 34,000  Level Indianapolis Center
05:38PM 37.6614 -83.6253 238° Southwest 368 423 34,000  Level Indianapolis Center
05:39PM 37.5978 -83.7536 238° Southwest 371 427 34,000  Level Indianapolis Center
05:40PM 37.5428 -83.8631 238° Southwest 370 426 34,000 -480 Level Indianapolis Center
05:41PM 37.4878 -83.9714 237° Southwest 368 423 33,100 -960 Descending Indianapolis Center
05:42PM 37.4308 -84.0817 237° Southwest 374 430 32,100 -1,020 Descending Indianapolis Center
05:43PM 37.3767 -84.1928 238° Southwest 373 429 31,100 -1,020 Descending Indianapolis Center
05:44PM 37.3194 -84.3022 237° Southwest 374 430 30,100 -1,200 Descending Indianapolis Center
05:45PM 37.2539 -84.4319 238° Southwest 377 434 28,700 -1,680 Descending Indianapolis Center
05:46PM 37.1978 -84.5422 237° Southwest 376 433 26,700 -1,980 Descending Indianapolis Center
05:48PM 37.1422 -84.6533 238° Southwest 375 432 24,700 -1,980 Descending Indianapolis Center
05:49PM 37.0858 -84.7603 237° Southwest 371 427 22,700 -1,320 Descending Indianapolis Center
05:50PM 37.0358 -84.8569 237° Southwest 352 405 22,000 -360 Descending Indianapolis Center
05:51PM 36.9831 -84.9589 237° Southwest 349 402 22,000  Level Indianapolis Center
05:52PM 36.9194 -85.0797 237° Southwest 348 400 22,000  Level Indianapolis Center
05:53PM 36.8672 -85.1817 237° Southwest 349 402 22,000  Level Indianapolis Center
05:54PM 36.8139 -85.2825 237° Southwest 349 402 22,000  Level Indianapolis Center
05:55PM 36.7611 -85.3828 237° Southwest 349 402 22,000 -360 Level Indianapolis Center
05:55PM 36.7264 -85.4461 236° Southwest 346 398 21,500 -660 Descending Memphis Center
05:56PM 36.6786 -85.5603 242° Southwest 369 425 21,000 -300 Descending Memphis Center
05:57PM 36.6264 -85.6642 238° Southwest 369 425 21,000  Level Memphis Center
05:58PM 36.5739 -85.7681 238° Southwest 369 425 21,000 -660 Level Memphis Center
05:59PM 36.5336 -85.8633 242° Southwest 364 419 19,700 -1,800 Descending Memphis Center
06:00PM 36.4911 -85.9536 240° Southwest 336 387 17,400 -2,700 Descending Memphis Center
06:01PM 36.4503 -86.0356 238° Southwest 294 338 14,400 -2,880 Descending Memphis Center
06:02PM 36.4197 -86.1225 246° West 278 320 11,700 -2,640 Descending Memphis Center
06:03PM 36.3981 -86.2164 254° West 267 307 9,200 -2,460 Descending Memphis Center
06:04PM 36.3756 -86.2947 250° West 257 296 6,800 -2,160 Descending Memphis Center
06:05PM 36.3486 -86.3658 245° Southwest 242 278 4,900 -1,500 Descending Memphis Center
06:06PM 36.3197 -86.4367 243° Southwest 236 272 3,800 -1,080 Descending Memphis Center
06:07PM 36.2928 -86.5075 245° Southwest 236 272 2,800 -900 Descending Memphis Center
06:08PM 36.2528 -86.5686 231° Southwest 236 272 2,000 -420 Descending Memphis Center
06:09PM 36.2167 -86.6139 225° Southwest 201 231 2,000  Level Memphis Center